createdAt,value
2018-06-18T00:01:51.325Z,11.63
2018-06-18T00:04:19.382Z,12.05
2018-06-18T00:06:47.430Z,10.98
2018-06-18T00:09:15.487Z,10.60
2018-06-18T00:11:43.950Z,9.35
2018-06-18T00:14:12.281Z,10.08
2018-06-18T00:16:40.307Z,9.28
2018-06-18T00:19:08.366Z,9.65
2018-06-18T00:21:36.505Z,10.30
2018-06-18T00:24:04.594Z,11.30
2018-06-18T00:26:32.600Z,10.10
2018-06-18T00:29:00.658Z,11.88
2018-06-18T00:31:28.710Z,10.95
2018-06-18T00:33:56.766Z,10.63
2018-06-18T00:36:24.773Z,11.10
2018-06-18T00:38:52.843Z,11.55
2018-06-18T00:41:20.905Z,9.53
2018-06-18T00:43:49.333Z,10.70
2018-06-18T00:46:17.228Z,9.35
2018-06-18T00:48:45.025Z,10.80
2018-06-18T00:51:14.072Z,10.10
2018-06-18T00:53:42.155Z,9.83
2018-06-18T00:56:12.314Z,10.40
2018-06-18T00:58:40.498Z,10.25
2018-06-18T01:01:08.554Z,9.68
2018-06-18T01:03:36.642Z,10.48
2018-06-18T01:06:04.990Z,10.25
2018-06-18T01:08:33.202Z,9.93
2018-06-18T01:11:02.386Z,10.25
2018-06-18T01:13:30.411Z,10.60
2018-06-18T01:15:58.560Z,10.32
2018-06-18T01:18:27.012Z,10.48
2018-06-18T01:20:55.011Z,9.85
2018-06-18T01:24:00.540Z,9.63
2018-06-18T01:26:28.412Z,10.28
2018-06-18T01:28:56.446Z,10.00
2018-06-18T01:31:24.647Z,9.85
2018-06-18T01:33:56.079Z,9.78
2018-06-18T01:36:24.260Z,10.80
2018-06-18T01:38:52.270Z,9.75
2018-06-18T01:41:20.278Z,9.85
2018-06-18T01:43:48.102Z,9.40
2018-06-18T01:46:15.968Z,9.60
2018-06-18T01:48:44.014Z,10.10
2018-06-18T01:51:12.149Z,10.78
2018-06-18T01:53:40.006Z,9.65
2018-06-18T01:56:08.021Z,9.90
2018-06-18T01:58:35.994Z,9.83
2018-06-18T02:01:04.078Z,9.95
2018-06-18T02:03:32.466Z,9.90
2018-06-18T02:06:00.506Z,10.50
2018-06-18T02:08:28.506Z,10.60
2018-06-18T02:10:56.583Z,10.28
2018-06-18T02:13:24.785Z,9.73
2018-06-18T02:15:52.904Z,9.70
2018-06-18T02:18:20.970Z,9.90
2018-06-18T02:20:49.074Z,9.40
2018-06-18T02:23:17.400Z,10.28
2018-06-18T02:25:45.421Z,9.40
2018-06-18T02:28:19.058Z,8.63
2018-06-18T02:30:52.416Z,9.80
2018-06-18T02:33:25.835Z,9.48
2018-06-18T02:35:59.463Z,10.40
2018-06-18T02:38:37.014Z,10.32
2018-06-18T02:41:05.389Z,9.50
2018-06-18T02:43:33.431Z,9.75
2018-06-18T02:46:01.638Z,10.45
2018-06-18T02:48:30.548Z,11.80
2018-06-18T02:50:58.557Z,11.50
2018-06-18T02:53:26.602Z,12.63
2018-06-18T02:55:54.592Z,14.10
2018-06-18T02:58:22.590Z,13.58
2018-06-18T03:00:50.780Z,13.20
2018-06-18T03:03:19.708Z,14.00
2018-06-18T03:05:47.623Z,13.58
2018-06-18T03:08:15.411Z,13.98
2018-06-18T03:10:43.499Z,13.50
2018-06-18T03:13:11.587Z,12.50
2018-06-18T03:15:39.677Z,13.40
2018-06-18T03:18:13.083Z,14.55
2018-06-18T03:20:47.033Z,13.45
2018-06-18T03:23:20.921Z,14.90
2018-06-18T03:25:54.429Z,13.80
2018-06-18T03:28:28.221Z,16.48
2018-06-18T03:30:56.220Z,15.25
2018-06-18T03:33:24.319Z,16.55
2018-06-18T03:35:52.334Z,14.20
2018-06-18T03:38:20.398Z,16.40
2018-06-18T03:40:48.500Z,13.10
2018-06-18T03:43:16.335Z,12.28
2018-06-18T03:45:44.391Z,13.18
2018-06-18T03:48:12.927Z,12.40
2018-06-18T03:50:40.806Z,12.50
2018-06-18T03:53:08.830Z,13.00
2018-06-18T03:55:41.969Z,13.38
2018-06-18T03:58:09.729Z,13.88
2018-06-18T04:00:55.750Z,14.50
2018-06-18T04:03:29.358Z,14.30
2018-06-18T04:08:10.234Z,14.30
2018-06-18T04:10:43.672Z,15.10
2018-06-18T04:13:11.776Z,13.10
2018-06-18T04:15:39.812Z,13.85
2018-06-18T04:18:07.860Z,13.03
2018-06-18T04:20:39.646Z,13.08
2018-06-18T04:23:07.918Z,14.90
2018-06-18T04:25:35.970Z,13.62
2018-06-18T04:28:04.120Z,13.10
2018-06-18T04:30:31.970Z,14.10
2018-06-18T04:32:59.987Z,13.55
2018-06-18T04:35:28.238Z,15.32
2018-06-18T04:37:56.311Z,16.17
2018-06-18T04:40:24.723Z,17.27
2018-06-18T04:45:02.036Z,17.10
2018-06-18T04:47:35.561Z,17.60
2018-06-18T04:50:09.213Z,19.92
2018-06-18T04:52:37.256Z,20.35
2018-06-18T04:55:05.393Z,21.20
2018-06-18T04:57:33.523Z,21.20
2018-06-18T05:01:17.289Z,22.70
2018-06-18T05:03:45.295Z,22.50
2018-06-18T05:06:13.433Z,21.65
2018-06-18T05:09:18.502Z,22.42
2018-06-18T05:11:46.338Z,21.23
2018-06-18T05:14:14.330Z,22.07
2018-06-18T05:16:42.121Z,22.20
2018-06-18T05:19:10.195Z,22.52
2018-06-18T05:21:38.265Z,22.22
2018-06-18T05:24:06.776Z,21.30
2018-06-18T05:26:37.058Z,22.52
2018-06-18T05:29:04.940Z,20.95
2018-06-18T05:31:32.950Z,20.52
2018-06-18T05:34:01.057Z,21.82
2018-06-18T05:36:29.075Z,23.57
2018-06-18T05:38:57.104Z,21.10
2018-06-18T05:41:24.949Z,21.93
2018-06-18T05:43:52.853Z,19.90
2018-06-18T05:46:20.929Z,21.87
2018-06-18T05:48:48.803Z,23.07
2018-06-18T05:51:18.384Z,22.47
2018-06-18T05:53:46.488Z,23.97
2018-06-18T05:56:14.525Z,21.60
2018-06-18T05:58:42.554Z,21.20
2018-06-18T06:01:10.325Z,22.13
